createdAt,value
2022-09-23T00:00:03.594Z,9.60
2022-09-23T00:01:03.637Z,9.58
2022-09-23T00:02:03.624Z,9.57
2022-09-23T00:03:03.569Z,9.58
2022-09-23T00:04:03.580Z,9.54
2022-09-23T00:05:03.539Z,9.57
2022-09-23T00:06:03.536Z,9.57
2022-09-23T00:07:03.532Z,9.58
2022-09-23T00:08:03.516Z,9.57
2022-09-23T00:09:03.535Z,9.58
2022-09-23T00:10:03.491Z,9.57
2022-09-23T00:11:03.480Z,9.56
2022-09-23T00:12:08.140Z,9.60
2022-09-23T00:13:04.462Z,9.58
2022-09-23T00:14:03.468Z,9.60
2022-09-23T00:15:03.438Z,9.56
2022-09-23T00:16:03.430Z,9.61
2022-09-23T00:17:03.480Z,9.58
2022-09-23T00:18:03.421Z,9.61
2022-09-23T00:19:03.413Z,9.60
2022-09-23T00:20:03.399Z,9.58
2022-09-23T00:21:03.379Z,9.61
2022-09-23T00:22:03.360Z,9.61
2022-09-23T00:23:03.359Z,9.66
2022-09-23T00:24:03.369Z,9.68
2022-09-23T00:25:03.344Z,9.68
2022-09-23T00:26:03.323Z,9.66
2022-09-23T00:27:03.313Z,9.65
2022-09-23T00:28:03.315Z,9.66
2022-09-23T00:29:03.292Z,9.65
2022-09-23T00:30:03.300Z,9.68
2022-09-23T00:31:03.369Z,9.68
2022-09-23T00:32:03.261Z,9.65
2022-09-23T00:33:03.254Z,9.61
2022-09-23T00:34:03.241Z,9.60
2022-09-23T00:35:03.243Z,9.60
2022-09-23T00:36:03.231Z,9.60
2022-09-23T00:37:03.212Z,9.60
2022-09-23T00:38:03.242Z,9.60
2022-09-23T00:39:04.403Z,9.61
2022-09-23T00:40:03.232Z,9.60
2022-09-23T00:41:03.164Z,9.61
2022-09-23T00:42:03.164Z,9.61
2022-09-23T00:43:03.158Z,9.61
2022-09-23T00:44:03.153Z,9.60
2022-09-23T00:45:03.124Z,9.64
2022-09-23T00:46:03.146Z,9.58
2022-09-23T00:47:03.148Z,9.58
2022-09-23T00:48:03.107Z,9.56
2022-09-23T00:49:03.096Z,9.54
2022-09-23T00:50:03.073Z,9.53
2022-09-23T00:51:03.065Z,9.51
2022-09-23T00:52:03.075Z,9.50
2022-09-23T00:53:03.036Z,9.50
2022-09-23T00:54:03.055Z,9.50
2022-09-23T00:55:03.032Z,9.47
2022-09-23T00:56:03.018Z,9.51
2022-09-23T00:57:02.996Z,9.48
2022-09-23T00:58:02.997Z,9.48
2022-09-23T00:59:03.004Z,9.50
2022-09-23T01:00:02.965Z,9.50
2022-09-23T01:01:02.996Z,9.48
2022-09-23T01:02:03.019Z,9.48
2022-09-23T01:03:02.939Z,9.51
2022-09-23T01:04:02.928Z,9.48
2022-09-23T01:05:02.936Z,9.43
2022-09-23T01:06:02.899Z,9.46
2022-09-23T01:07:02.907Z,9.43
2022-09-23T01:08:02.906Z,9.42
2022-09-23T01:09:02.923Z,9.43
2022-09-23T01:10:03.143Z,9.39
2022-09-23T01:11:02.856Z,9.39
2022-09-23T01:12:02.840Z,9.38
2022-09-23T01:13:02.828Z,9.39
2022-09-23T01:14:02.839Z,9.38
2022-09-23T01:15:02.814Z,9.38
2022-09-23T01:16:02.802Z,9.38
2022-09-23T01:17:02.848Z,9.38
2022-09-23T01:18:02.780Z,9.36
2022-09-23T01:19:02.797Z,9.35
2022-09-23T01:20:02.764Z,9.35
2022-09-23T01:21:02.764Z,9.32
2022-09-23T01:22:02.738Z,9.35
2022-09-23T01:23:02.734Z,9.35
2022-09-23T01:24:02.780Z,9.32
2022-09-23T01:25:02.730Z,9.32
2022-09-23T01:26:02.698Z,9.32
2022-09-23T01:27:02.680Z,9.31
2022-09-23T01:28:02.690Z,9.32
2022-09-23T01:29:02.680Z,9.32
2022-09-23T01:30:02.672Z,9.33
2022-09-23T01:31:02.717Z,9.32
2022-09-23T01:32:02.662Z,9.29
2022-09-23T01:33:02.622Z,9.29
2022-09-23T01:34:02.613Z,9.32
2022-09-23T01:35:02.601Z,9.29
2022-09-23T01:36:02.593Z,9.29
2022-09-23T01:37:02.602Z,9.31
2022-09-23T01:38:02.563Z,9.31
2022-09-23T01:39:02.594Z,9.28
2022-09-23T01:40:02.758Z,9.28
2022-09-23T01:41:02.542Z,9.29
2022-09-23T01:42:02.541Z,9.31
2022-09-23T01:43:02.513Z,9.35
2022-09-23T01:44:02.534Z,9.36
2022-09-23T01:45:02.495Z,9.38
2022-09-23T01:46:02.484Z,9.33
2022-09-23T01:47:02.474Z,9.38
2022-09-23T01:48:02.530Z,9.33
2022-09-23T01:49:02.465Z,9.33
2022-09-23T01:50:02.444Z,9.31
2022-09-23T01:51:02.434Z,9.32
2022-09-23T01:52:02.445Z,9.28
2022-09-23T01:53:02.414Z,9.29
2022-09-23T01:54:02.401Z,9.29
2022-09-23T01:55:02.385Z,9.23
2022-09-23T01:56:02.444Z,9.24
2022-09-23T01:57:02.375Z,9.23
2022-09-23T01:58:02.375Z,9.24
2022-09-23T01:59:02.348Z,9.23
2022-09-23T02:00:02.337Z,9.23
2022-09-23T02:01:02.388Z,9.21
2022-09-23T02:02:02.383Z,9.21
2022-09-23T02:03:02.316Z,9.23
2022-09-23T02:04:02.382Z,9.23
2022-09-23T02:05:02.289Z,9.26
2022-09-23T02:06:02.279Z,9.21
2022-09-23T02:07:02.279Z,9.21
2022-09-23T02:08:02.245Z,9.20
2022-09-23T02:09:02.252Z,9.18
2022-09-23T02:10:02.237Z,9.18
2022-09-23T02:11:02.217Z,9.18
2022-09-23T02:12:02.230Z,9.17
2022-09-23T02:13:02.199Z,9.15
2022-09-23T02:14:02.189Z,9.14
2022-09-23T02:15:02.188Z,9.14
2022-09-23T02:16:02.192Z,9.15
2022-09-23T02:17:02.210Z,9.13
2022-09-23T02:18:02.149Z,9.13
2022-09-23T02:19:02.189Z,9.14
2022-09-23T02:20:02.161Z,9.13
2022-09-23T02:21:02.114Z,9.11
2022-09-23T02:22:02.124Z,9.13
2022-09-23T02:23:02.092Z,9.11
2022-09-23T02:24:02.091Z,9.11
2022-09-23T02:25:02.098Z,9.08
2022-09-23T02:26:02.068Z,9.05
2022-09-23T02:27:02.061Z,9.08
2022-09-23T02:28:02.041Z,9.05
2022-09-23T02:29:02.111Z,9.04
2022-09-23T02:30:02.033Z,9.02
2022-09-23T02:31:02.029Z,8.99
2022-09-23T02:32:02.104Z,8.98
2022-09-23T02:33:01.981Z,8.94
2022-09-23T02:34:02.001Z,8.92
2022-09-23T02:35:01.962Z,8.91
2022-09-23T02:36:01.956Z,8.87
2022-09-23T02:37:01.951Z,8.87
2022-09-23T02:38:01.961Z,8.81
2022-09-23T02:39:01.933Z,8.81
2022-09-23T02:40:01.911Z,8.80
2022-09-23T02:41:01.906Z,8.80
2022-09-23T02:42:01.893Z,8.80
2022-09-23T02:43:01.901Z,8.77
2022-09-23T02:44:01.912Z,8.76
2022-09-23T02:45:01.874Z,8.76
2022-09-23T02:46:01.879Z,8.74
2022-09-23T02:47:01.844Z,8.73
2022-09-23T02:48:01.862Z,8.70
2022-09-23T02:49:01.842Z,8.73
2022-09-23T02:50:01.810Z,8.73
2022-09-23T02:51:01.812Z,8.68
2022-09-23T02:52:01.785Z,8.65
2022-09-23T02:53:01.785Z,8.65
2022-09-23T02:54:01.814Z,8.58
2022-09-23T02:55:01.762Z,8.56
2022-09-23T02:56:01.755Z,8.50
2022-09-23T02:57:01.743Z,8.50
2022-09-23T02:58:01.724Z,8.45
2022-09-23T02:59:01.735Z,8.44
2022-09-23T03:00:01.709Z,8.41
2022-09-23T03:01:01.757Z,8.43
2022-09-23T03:02:01.734Z,8.40
2022-09-23T03:03:01.676Z,8.40
2022-09-23T03:04:01.687Z,8.40
2022-09-23T03:05:01.660Z,8.38
2022-09-23T03:06:01.653Z,8.38
2022-09-23T03:07:01.643Z,8.37
2022-09-23T03:08:01.645Z,8.34
2022-09-23T03:09:01.606Z,8.30
2022-09-23T03:10:01.609Z,8.29
2022-09-23T03:11:01.590Z,8.29
2022-09-23T03:12:01.597Z,8.29
2022-09-23T03:13:01.580Z,8.30
2022-09-23T03:14:01.568Z,8.33
2022-09-23T03:15:01.548Z,8.29
2022-09-23T03:16:01.577Z,8.28
2022-09-23T03:17:01.540Z,8.29
2022-09-23T03:18:01.537Z,8.25
2022-09-23T03:19:01.508Z,8.26
2022-09-23T03:20:01.516Z,8.26
2022-09-23T03:21:01.492Z,8.28
2022-09-23T03:22:01.478Z,8.29
2022-09-23T03:23:01.482Z,8.26
2022-09-23T03:24:01.565Z,8.29
2022-09-23T03:25:01.455Z,8.29
2022-09-23T03:26:01.438Z,8.26
2022-09-23T03:27:01.431Z,8.28
2022-09-23T03:28:01.446Z,8.30
2022-09-23T03:29:01.400Z,8.29
2022-09-23T03:30:01.400Z,8.29
2022-09-23T03:31:01.381Z,8.30
2022-09-23T03:32:01.438Z,8.30
2022-09-23T03:33:01.381Z,8.28
2022-09-23T03:34:01.353Z,8.28
2022-09-23T03:35:01.341Z,8.29
2022-09-23T03:36:01.333Z,8.28
2022-09-23T03:37:01.320Z,8.28
2022-09-23T03:38:01.330Z,8.26
2022-09-23T03:39:01.334Z,8.26
2022-09-23T03:40:01.293Z,8.28
2022-09-23T03:41:01.298Z,8.26
2022-09-23T03:42:01.273Z,8.25
2022-09-23T03:43:01.284Z,8.26
2022-09-23T03:44:01.254Z,8.22
2022-09-23T03:45:01.234Z,8.22
2022-09-23T03:46:01.331Z,8.23
2022-09-23T03:47:01.231Z,8.26
2022-09-23T03:48:01.209Z,8.25
2022-09-23T03:49:02.887Z,8.20
2022-09-23T03:50:01.192Z,8.22
2022-09-23T03:51:01.193Z,8.22
2022-09-23T03:52:01.183Z,8.22
2022-09-23T03:53:01.164Z,8.16
2022-09-23T03:54:01.144Z,8.18
2022-09-23T03:55:01.154Z,8.15
2022-09-23T03:56:01.144Z,8.12
2022-09-23T03:57:01.114Z,8.11
2022-09-23T03:58:01.094Z,8.10
2022-09-23T03:59:01.113Z,8.08
2022-09-23T04:00:01.084Z,8.08
2022-09-23T04:01:01.134Z,8.04
2022-09-23T04:02:01.110Z,8.04
2022-09-23T04:03:01.055Z,8.01
2022-09-23T04:04:01.045Z,7.93
2022-09-23T04:05:01.037Z,7.92
2022-09-23T04:06:01.017Z,7.89
2022-09-23T04:07:01.030Z,7.89
2022-09-23T04:08:01.004Z,7.86
2022-09-23T04:09:00.997Z,7.82
2022-09-23T04:10:00.984Z,7.82
2022-09-23T04:11:00.964Z,7.83
2022-09-23T04:12:00.984Z,7.82
2022-09-23T04:13:00.905Z,7.83
2022-09-23T04:14:00.945Z,7.82
2022-09-23T04:15:00.958Z,7.80
2022-09-23T04:16:00.946Z,7.77
2022-09-23T04:17:00.875Z,7.77
2022-09-23T04:18:00.847Z,7.72
2022-09-23T04:19:02.075Z,7.77
2022-09-23T04:20:00.816Z,7.71
2022-09-23T04:21:00.886Z,7.71
2022-09-23T04:22:00.877Z,7.71
2022-09-23T04:23:00.807Z,7.69
2022-09-23T04:24:00.799Z,7.69
2022-09-23T04:25:00.767Z,7.68
2022-09-23T04:26:00.784Z,7.69
2022-09-23T04:27:00.759Z,7.72
2022-09-23T04:28:00.748Z,7.74
2022-09-23T04:29:00.728Z,7.75
2022-09-23T04:30:00.747Z,7.74
2022-09-23T04:31:00.708Z,7.77
2022-09-23T04:32:00.751Z,7.82
2022-09-23T04:33:00.700Z,7.80
2022-09-23T04:34:00.709Z,7.79
2022-09-23T04:35:00.670Z,7.82
2022-09-23T04:36:00.659Z,7.82
2022-09-23T04:37:00.661Z,7.85
2022-09-23T04:38:00.650Z,7.85
2022-09-23T04:39:00.671Z,7.85
2022-09-23T04:40:00.618Z,7.85
2022-09-23T04:41:00.605Z,7.83
2022-09-23T04:42:00.616Z,7.82
2022-09-23T04:43:00.612Z,7.82
2022-09-23T04:44:00.570Z,7.82
2022-09-23T04:45:00.574Z,7.80
2022-09-23T04:46:00.562Z,7.83
2022-09-23T04:47:00.568Z,7.80
2022-09-23T04:48:00.554Z,7.80
2022-09-23T04:49:02.176Z,7.80
2022-09-23T04:50:00.586Z,7.80
2022-09-23T04:51:00.728Z,7.80
2022-09-23T04:52:00.639Z,7.82
2022-09-23T04:53:00.555Z,7.82
2022-09-23T04:54:00.491Z,7.82
2022-09-23T04:55:00.464Z,7.85
2022-09-23T04:56:00.457Z,7.85
2022-09-23T04:57:00.469Z,7.83
2022-09-23T04:58:00.463Z,7.87
2022-09-23T04:59:00.450Z,7.87
2022-09-23T05:00:00.423Z,7.92
2022-09-23T05:01:05.004Z,7.89
2022-09-23T05:02:00.471Z,7.92
2022-09-23T05:03:00.384Z,7.90
2022-09-23T05:04:00.372Z,7.95
2022-09-23T05:05:00.362Z,7.95
2022-09-23T05:06:00.374Z,7.98
2022-09-23T05:07:03.258Z,8.00
2022-09-23T05:08:00.334Z,8.02
2022-09-23T05:09:00.367Z,8.04
2022-09-23T05:10:00.303Z,8.05
2022-09-23T05:11:00.296Z,8.05
2022-09-23T05:12:00.304Z,8.10
2022-09-23T05:13:00.299Z,8.12
2022-09-23T05:14:00.265Z,8.11
2022-09-23T05:15:00.257Z,8.16
2022-09-23T05:16:00.276Z,8.16
2022-09-23T05:17:00.273Z,8.15
2022-09-23T05:18:00.236Z,8.19
2022-09-23T05:19:01.360Z,8.22
2022-09-23T05:20:00.215Z,8.26
2022-09-23T05:21:00.186Z,8.29
2022-09-23T05:22:00.170Z,8.28
2022-09-23T05:23:00.192Z,8.34
2022-09-23T05:24:00.162Z,8.37
2022-09-23T05:25:00.157Z,8.40
2022-09-23T05:26:00.157Z,8.41
2022-09-23T05:27:00.126Z,8.52
2022-09-23T05:28:00.136Z,8.81
2022-09-23T05:29:00.215Z,9.38
2022-09-23T05:30:00.130Z,9.97
2022-09-23T05:31:00.157Z,10.56
2022-09-23T05:32:00.213Z,10.92
2022-09-23T05:33:00.068Z,11.32
2022-09-23T05:34:00.073Z,11.61
2022-09-23T05:35:00.059Z,11.96
2022-09-23T05:36:00.051Z,12.29
2022-09-23T05:37:00.038Z,12.60
2022-09-23T05:38:00.027Z,12.85
2022-09-23T05:39:00.095Z,13.04
2022-09-23T05:39:59.989Z,13.28
2022-09-23T05:40:59.998Z,13.54
2022-09-23T05:41:59.979Z,13.69
2022-09-23T05:42:59.980Z,13.95
2022-09-23T05:43:59.959Z,14.02
2022-09-23T05:44:59.938Z,14.04
2022-09-23T05:45:59.928Z,13.92
2022-09-23T05:46:59.974Z,14.14
2022-09-23T05:47:59.937Z,14.39
2022-09-23T05:49:03.314Z,14.60
2022-09-23T05:50:00.645Z,14.75
2022-09-23T05:50:59.880Z,14.94
2022-09-23T05:51:59.880Z,15.11
2022-09-23T05:52:59.882Z,15.28
2022-09-23T05:53:59.863Z,15.31
2022-09-23T05:54:59.831Z,15.25
2022-09-23T05:55:59.889Z,15.17
2022-09-23T05:57:02.695Z,15.13
2022-09-23T05:58:00.800Z,14.75
2022-09-23T05:58:59.806Z,14.28
2022-09-23T05:59:59.781Z,13.73
2022-09-23T06:00:59.780Z,13.26
2022-09-23T06:01:59.825Z,12.96
2022-09-23T06:02:59.836Z,12.70
2022-09-23T06:03:59.805Z,12.46
2022-09-23T06:04:59.732Z,12.17
2022-09-23T06:05:59.724Z,11.95
2022-09-23T06:07:03.290Z,11.52
2022-09-23T06:07:59.726Z,11.15
2022-09-23T06:08:59.756Z,10.84
2022-09-23T06:09:59.682Z,10.61
2022-09-23T06:10:59.664Z,10.38
2022-09-23T06:11:59.694Z,10.05
2022-09-23T06:12:59.668Z,9.93
2022-09-23T06:13:59.665Z,9.93
2022-09-23T06:14:59.622Z,9.89
2022-09-23T06:15:59.671Z,9.84
2022-09-23T06:16:59.608Z,9.87
2022-09-23T06:17:59.604Z,9.87
2022-09-23T06:19:05.248Z,9.87
2022-09-23T06:19:59.578Z,9.91
2022-09-23T06:20:59.565Z,9.84
2022-09-23T06:21:59.563Z,9.83
2022-09-23T06:22:59.552Z,9.84
2022-09-23T06:23:59.540Z,9.86
2022-09-23T06:24:59.532Z,9.84
2022-09-23T06:25:59.507Z,9.86
2022-09-23T06:26:59.498Z,9.86
2022-09-23T06:27:59.514Z,9.86
2022-09-23T06:28:59.476Z,9.93
2022-09-23T06:29:59.475Z,9.97
2022-09-23T06:30:59.481Z,10.04
2022-09-23T06:31:59.476Z,10.04
2022-09-23T06:32:59.451Z,10.12
2022-09-23T06:34:09.704Z,10.18
2022-09-23T06:35:00.428Z,10.22
2022-09-23T06:36:00.032Z,10.25
2022-09-23T06:37:04.844Z,10.32
2022-09-23T06:38:00.406Z,10.32
2022-09-23T06:38:59.376Z,10.38
2022-09-23T06:39:59.368Z,10.38
2022-09-23T06:40:59.360Z,10.42
2022-09-23T06:41:59.361Z,10.42
2022-09-23T06:42:59.352Z,10.48
2022-09-23T06:43:59.334Z,10.59
2022-09-23T06:44:59.323Z,10.60
2022-09-23T06:45:59.299Z,10.63
2022-09-23T06:46:59.349Z,10.67
2022-09-23T06:47:59.271Z,10.74
2022-09-23T06:49:00.665Z,10.73
2022-09-23T06:49:59.255Z,10.78
2022-09-23T06:50:59.255Z,10.84
2022-09-23T06:51:59.271Z,10.84
2022-09-23T06:52:59.461Z,10.88
2022-09-23T06:53:59.342Z,10.89
2022-09-23T06:54:59.273Z,10.86
2022-09-23T06:55:59.214Z,10.97
2022-09-23T06:56:59.215Z,10.96
2022-09-23T06:57:59.183Z,11.03
2022-09-23T06:58:59.164Z,11.09
2022-09-23T06:59:59.432Z,11.14
2022-09-23T07:00:59.154Z,11.21
2022-09-23T07:01:59.231Z,11.27
2022-09-23T07:02:59.228Z,11.27
2022-09-23T07:03:59.219Z,11.32
2022-09-23T07:04:59.108Z,11.39
2022-09-23T07:05:59.132Z,11.43
2022-09-23T07:06:59.083Z,11.46
2022-09-23T07:07:59.101Z,11.51
2022-09-23T07:08:59.065Z,11.54
2022-09-23T07:09:59.055Z,11.57
2022-09-23T07:10:59.047Z,11.65
2022-09-23T07:11:59.031Z,11.72
2022-09-23T07:12:59.036Z,11.79
2022-09-23T07:13:59.005Z,11.88
2022-09-23T07:14:59.007Z,11.91
2022-09-23T07:15:59.040Z,11.94
2022-09-23T07:16:59.003Z,12.05
2022-09-23T07:17:58.986Z,12.09
2022-09-23T07:18:59.240Z,12.12
2022-09-23T07:19:58.954Z,12.13
2022-09-23T07:20:59.688Z,12.16
2022-09-23T07:21:58.940Z,12.20
2022-09-23T07:22:58.927Z,12.29
2022-09-23T07:23:58.908Z,12.37
2022-09-23T07:24:58.896Z,12.45
2022-09-23T07:25:58.896Z,12.46
2022-09-23T07:26:58.868Z,12.52
2022-09-23T07:27:58.859Z,12.50
2022-09-23T07:28:58.849Z,12.52
2022-09-23T07:29:58.848Z,12.54
2022-09-23T07:31:00.943Z,12.70
2022-09-23T07:32:10.329Z,12.77
2022-09-23T07:32:59.932Z,12.77
2022-09-23T07:33:58.866Z,12.77
2022-09-23T07:34:58.798Z,12.85
2022-09-23T07:35:58.975Z,12.93
2022-09-23T07:36:58.762Z,13.08
2022-09-23T07:37:58.780Z,13.12
2022-09-23T07:38:58.759Z,13.12
2022-09-23T07:39:58.741Z,13.08
2022-09-23T07:40:58.752Z,13.14
2022-09-23T07:41:58.711Z,13.22
2022-09-23T07:42:58.721Z,13.22
2022-09-23T07:43:58.713Z,13.23
2022-09-23T07:44:58.833Z,13.20
2022-09-23T07:45:58.886Z,13.15
2022-09-23T07:46:58.701Z,13.19
2022-09-23T07:47:58.648Z,13.23
2022-09-23T07:48:59.771Z,13.32
2022-09-23T07:49:58.645Z,13.33
2022-09-23T07:50:58.644Z,13.30
2022-09-23T07:51:58.614Z,13.39
2022-09-23T07:52:58.614Z,13.42
2022-09-23T07:53:58.607Z,13.54
2022-09-23T07:54:58.581Z,13.55
2022-09-23T07:55:58.582Z,13.66
2022-09-23T07:56:58.556Z,13.71
2022-09-23T07:57:58.545Z,13.77
2022-09-23T07:58:58.566Z,13.70
2022-09-23T07:59:58.561Z,13.81
2022-09-23T08:00:58.524Z,13.89
2022-09-23T08:01:58.576Z,14.00
2022-09-23T08:02:58.582Z,14.06
2022-09-23T08:03:58.515Z,14.18
2022-09-23T08:04:58.479Z,14.20
2022-09-23T08:05:58.477Z,14.25
2022-09-23T08:06:58.504Z,14.22
2022-09-23T08:07:58.468Z,14.22
2022-09-23T08:08:58.446Z,14.15
2022-09-23T08:09:58.500Z,14.14
2022-09-23T08:10:58.427Z,14.24
2022-09-23T08:11:58.438Z,14.32
2022-09-23T08:12:58.395Z,14.32
2022-09-23T08:13:58.563Z,14.18
2022-09-23T08:14:58.377Z,14.21
2022-09-23T08:15:58.420Z,14.22
2022-09-23T08:16:58.351Z,14.32
2022-09-23T08:17:58.419Z,14.36
2022-09-23T08:18:58.860Z,14.42
2022-09-23T08:19:58.326Z,14.47
2022-09-23T08:20:58.312Z,14.55
2022-09-23T08:21:58.471Z,14.61
2022-09-23T08:22:58.680Z,14.73
2022-09-23T08:23:58.260Z,14.83
2022-09-23T08:24:58.280Z,14.80
2022-09-23T08:25:59.466Z,14.83
2022-09-23T08:26:58.238Z,14.89
2022-09-23T08:27:58.340Z,14.94
2022-09-23T08:28:58.214Z,15.06
2022-09-23T08:29:58.223Z,15.13
2022-09-23T08:30:58.217Z,15.23
2022-09-23T08:31:58.230Z,15.28
2022-09-23T08:32:58.189Z,15.21
2022-09-23T08:33:58.171Z,15.17
2022-09-23T08:34:58.153Z,15.19
2022-09-23T08:35:58.142Z,15.20
2022-09-23T08:36:58.168Z,15.06
2022-09-23T08:37:58.564Z,14.92
2022-09-23T08:38:58.123Z,14.94
2022-09-23T08:39:58.115Z,14.94
2022-09-23T08:40:58.112Z,15.03
2022-09-23T08:41:59.186Z,15.11
2022-09-23T08:42:58.064Z,15.10
2022-09-23T08:43:58.053Z,15.21
2022-09-23T08:44:58.065Z,15.21
2022-09-23T08:45:58.199Z,15.28
2022-09-23T08:46:58.026Z,15.29
2022-09-23T08:47:58.034Z,15.28
2022-09-23T08:48:59.370Z,15.31
2022-09-23T08:49:58.015Z,15.32
2022-09-23T08:50:58.006Z,15.39
2022-09-23T08:51:57.974Z,15.34
2022-09-23T08:52:57.957Z,15.43
2022-09-23T08:53:57.959Z,15.51
2022-09-23T08:54:57.939Z,15.57
2022-09-23T08:55:57.934Z,15.60
2022-09-23T08:56:57.939Z,15.57
2022-09-23T08:58:23.294Z,15.65
2022-09-23T08:58:58.898Z,15.69
2022-09-23T08:59:57.897Z,15.83
2022-09-23T09:00:57.917Z,15.90
2022-09-23T09:01:57.927Z,16.00
2022-09-23T09:02:57.895Z,16.08
2022-09-23T09:03:57.843Z,16.17
2022-09-23T09:04:57.850Z,16.17
2022-09-23T09:05:57.823Z,16.28
2022-09-23T09:07:12.499Z,16.24
2022-09-23T09:07:58.810Z,16.21
2022-09-23T09:08:57.780Z,16.31
2022-09-23T09:09:57.783Z,16.33
2022-09-23T09:10:57.780Z,16.34
2022-09-23T09:11:57.784Z,16.27
2022-09-23T09:12:57.752Z,16.28
2022-09-23T09:13:57.731Z,16.35
2022-09-23T09:14:57.733Z,16.45
2022-09-23T09:15:57.772Z,16.57
2022-09-23T09:17:00.341Z,16.30
2022-09-23T09:17:57.692Z,16.07
2022-09-23T09:18:59.082Z,16.11
2022-09-23T09:19:57.683Z,16.14
2022-09-23T09:20:57.696Z,16.23
2022-09-23T09:21:57.654Z,16.31
2022-09-23T09:22:57.898Z,16.15
2022-09-23T09:23:57.645Z,16.04
2022-09-23T09:24:57.649Z,16.14
2022-09-23T09:25:57.772Z,16.23
2022-09-23T09:26:57.598Z,16.34
2022-09-23T09:27:57.605Z,16.43
2022-09-23T09:29:06.594Z,16.52
2022-09-23T09:29:58.573Z,16.60
2022-09-23T09:30:57.611Z,16.49
2022-09-23T09:31:57.560Z,16.56
2022-09-23T09:32:57.551Z,16.66
2022-09-23T09:33:57.562Z,16.79
2022-09-23T09:34:57.531Z,16.94
2022-09-23T09:35:57.532Z,17.07
2022-09-23T09:36:57.508Z,17.18
2022-09-23T09:37:57.507Z,17.22
2022-09-23T09:38:57.509Z,17.19
2022-09-23T09:39:57.478Z,17.28
2022-09-23T09:40:57.491Z,17.37
2022-09-23T09:41:57.456Z,17.46
2022-09-23T09:42:57.444Z,17.49
2022-09-23T09:43:57.480Z,17.49
2022-09-23T09:44:57.435Z,17.46
2022-09-23T09:45:58.221Z,17.55
2022-09-23T09:46:57.481Z,17.56
2022-09-23T09:47:57.412Z,17.54
2022-09-23T09:48:59.314Z,17.54
2022-09-23T09:49:57.370Z,17.52
2022-09-23T09:50:57.361Z,17.48
2022-09-23T09:51:57.353Z,17.28
2022-09-23T09:52:57.308Z,17.22
2022-09-23T09:53:57.321Z,17.25
2022-09-23T09:54:57.279Z,17.30
2022-09-23T09:56:00.860Z,17.48
2022-09-23T09:56:58.246Z,17.64
2022-09-23T09:57:57.245Z,17.78
2022-09-23T09:58:57.226Z,17.84
2022-09-23T09:59:57.218Z,17.87
2022-09-23T10:00:57.198Z,17.81
2022-09-23T10:01:57.201Z,17.68
2022-09-23T10:02:57.200Z,17.75
2022-09-23T10:03:59.543Z,17.79
2022-09-23T10:04:57.167Z,17.86
2022-09-23T10:05:57.179Z,17.90
2022-09-23T10:06:57.149Z,17.81
2022-09-23T10:07:57.120Z,17.74
2022-09-23T10:08:57.148Z,17.81
2022-09-23T10:10:01.862Z,17.89
2022-09-23T10:10:58.099Z,17.96
2022-09-23T10:11:57.102Z,17.99
2022-09-23T10:12:57.098Z,17.97
2022-09-23T10:13:57.067Z,18.10
2022-09-23T10:14:57.059Z,18.25
2022-09-23T10:15:57.067Z,18.39
2022-09-23T10:16:57.055Z,18.41
2022-09-23T10:17:57.037Z,18.45
2022-09-23T10:18:57.129Z,18.58
2022-09-23T10:19:56.998Z,18.60
2022-09-23T10:20:57.001Z,18.42
2022-09-23T10:21:57.030Z,18.27
2022-09-23T10:22:56.972Z,18.17
2022-09-23T10:23:56.974Z,18.08
2022-09-23T10:24:56.951Z,18.18
2022-09-23T10:25:56.970Z,18.23
2022-09-23T10:26:56.932Z,18.30
2022-09-23T10:27:56.921Z,18.35
2022-09-23T10:28:56.911Z,18.42
2022-09-23T10:29:56.905Z,18.42
2022-09-23T10:30:56.937Z,18.58
2022-09-23T10:31:56.872Z,18.60
2022-09-23T10:32:56.871Z,18.67
2022-09-23T10:33:56.864Z,18.44
2022-09-23T10:34:56.849Z,18.42
2022-09-23T10:35:56.863Z,18.37
2022-09-23T10:36:56.855Z,18.35
2022-09-23T10:37:56.821Z,18.36
2022-09-23T10:38:56.811Z,18.33
2022-09-23T10:39:56.799Z,18.33
2022-09-23T10:40:56.893Z,18.17
2022-09-23T10:41:56.801Z,18.03
2022-09-23T10:42:56.783Z,18.03
2022-09-23T10:43:56.761Z,18.14
2022-09-23T10:44:56.762Z,18.27
2022-09-23T10:45:56.792Z,18.37
2022-09-23T10:46:56.752Z,18.42
2022-09-23T10:47:56.722Z,18.47
2022-09-23T10:48:56.718Z,18.27
2022-09-23T10:49:56.697Z,18.18
2022-09-23T10:50:58.979Z,18.18
2022-09-23T10:51:56.710Z,18.21
2022-09-23T10:52:56.681Z,18.11
2022-09-23T10:53:56.660Z,18.17
2022-09-23T10:54:56.663Z,18.33
2022-09-23T10:55:56.668Z,18.39
2022-09-23T10:56:59.091Z,18.50
2022-09-23T10:57:56.622Z,18.65
2022-09-23T10:58:56.628Z,18.81
2022-09-23T10:59:56.626Z,18.99
2022-09-23T11:00:56.658Z,19.14
2022-09-23T11:01:56.626Z,19.18
2022-09-23T11:02:56.574Z,19.02
2022-09-23T11:03:56.573Z,19.04
2022-09-23T11:04:56.704Z,19.10
2022-09-23T11:05:56.548Z,18.91
2022-09-23T11:06:56.540Z,18.65
2022-09-23T11:07:56.527Z,18.62
2022-09-23T11:08:56.541Z,18.66
2022-09-23T11:09:56.510Z,18.75
2022-09-23T11:10:56.500Z,18.80
2022-09-23T11:11:56.495Z,18.90
2022-09-23T11:12:56.473Z,19.08
2022-09-23T11:13:56.492Z,19.14
2022-09-23T11:14:56.480Z,19.25
2022-09-23T11:15:56.455Z,19.23
2022-09-23T11:16:56.482Z,19.23
2022-09-23T11:17:56.435Z,19.18
2022-09-23T11:18:56.446Z,19.23
2022-09-23T11:19:56.419Z,19.21
2022-09-23T11:20:56.420Z,19.31
2022-09-23T11:21:56.398Z,19.39
2022-09-23T11:22:56.382Z,19.31
2022-09-23T11:23:56.380Z,19.32
2022-09-23T11:24:56.385Z,19.26
2022-09-23T11:25:56.356Z,19.13
2022-09-23T11:26:56.343Z,18.73
2022-09-23T11:27:56.337Z,18.75
2022-09-23T11:28:56.333Z,18.70
2022-09-23T11:29:56.345Z,18.72
2022-09-23T11:30:56.326Z,18.87
2022-09-23T11:31:59.559Z,18.94
2022-09-23T11:32:56.350Z,19.02
2022-09-23T11:33:56.278Z,18.98
2022-09-23T11:34:56.283Z,19.08
2022-09-23T11:35:56.248Z,19.16
2022-09-23T11:36:56.250Z,19.06
2022-09-23T11:37:56.248Z,19.11
2022-09-23T11:38:56.251Z,19.07
2022-09-23T11:39:56.221Z,18.91
2022-09-23T11:40:56.238Z,18.90
2022-09-23T11:41:56.191Z,18.85
2022-09-23T11:42:56.195Z,18.81
2022-09-23T11:43:56.172Z,18.90
2022-09-23T11:44:56.220Z,19.06
2022-09-23T11:45:56.205Z,19.16
2022-09-23T11:46:56.151Z,19.32
2022-09-23T11:47:56.166Z,19.32
2022-09-23T11:48:56.124Z,19.32
2022-09-23T11:49:56.113Z,19.32
2022-09-23T11:50:56.097Z,19.39
2022-09-23T11:51:56.115Z,19.36
2022-09-23T11:52:56.083Z,19.32
2022-09-23T11:53:56.077Z,19.32
2022-09-23T11:54:56.169Z,19.23
2022-09-23T11:55:58.393Z,19.23
2022-09-23T11:56:56.047Z,19.18
2022-09-23T11:57:56.061Z,19.19
2022-09-23T11:59:04.285Z,19.10
2022-09-23T11:59:57.021Z,19.18
2022-09-23T12:01:00.510Z,19.14
2022-09-23T12:01:57.267Z,19.04
2022-09-23T12:03:03.770Z,18.98
2022-09-23T12:03:57.747Z,18.92
2022-09-23T12:04:58.350Z,19.02
2022-09-23T12:05:56.109Z,19.19
2022-09-23T12:06:55.951Z,19.25
2022-09-23T12:07:55.934Z,19.32
2022-09-23T12:08:55.928Z,19.29
2022-09-23T12:09:58.562Z,19.29
2022-09-23T12:10:55.925Z,19.41
2022-09-23T12:11:55.896Z,19.43
2022-09-23T12:12:55.884Z,19.46
2022-09-23T12:13:55.865Z,19.29
2022-09-23T12:14:55.863Z,19.28
2022-09-23T12:15:55.852Z,19.31
2022-09-23T12:16:55.965Z,19.39
2022-09-23T12:17:55.834Z,19.31
2022-09-23T12:18:55.819Z,18.91
2022-09-23T12:19:55.809Z,18.73
2022-09-23T12:20:55.799Z,18.84
2022-09-23T12:21:55.818Z,18.95
2022-09-23T12:22:55.770Z,19.11
2022-09-23T12:23:55.960Z,19.22
2022-09-23T12:24:55.788Z,19.19
2022-09-23T12:25:55.776Z,19.23
2022-09-23T12:26:55.762Z,19.36
2022-09-23T12:27:55.736Z,19.55
2022-09-23T12:28:55.730Z,19.68
2022-09-23T12:29:55.705Z,19.80
2022-09-23T12:30:55.723Z,19.84
2022-09-23T12:31:55.730Z,19.76
2022-09-23T12:32:55.687Z,19.74
2022-09-23T12:33:55.666Z,19.84
2022-09-23T12:34:55.659Z,19.88
2022-09-23T12:35:55.707Z,19.92
2022-09-23T12:36:55.653Z,19.88
2022-09-23T12:37:55.631Z,19.92
2022-09-23T12:38:55.647Z,19.84
2022-09-23T12:39:55.604Z,19.83
2022-09-23T12:40:55.623Z,19.74
2022-09-23T12:41:55.576Z,19.69
2022-09-23T12:42:55.587Z,19.71
2022-09-23T12:43:55.559Z,19.62
2022-09-23T12:44:55.581Z,19.74
2022-09-23T12:45:55.600Z,19.69
2022-09-23T12:46:55.543Z,19.74
2022-09-23T12:47:55.621Z,19.84
2022-09-23T12:48:55.544Z,19.83
2022-09-23T12:49:55.515Z,19.87
2022-09-23T12:50:55.496Z,19.86
2022-09-23T12:51:55.483Z,19.71
2022-09-23T12:52:55.643Z,19.59
2022-09-23T12:53:55.499Z,19.48
2022-09-23T12:54:55.493Z,19.44
2022-09-23T12:55:55.434Z,19.46
2022-09-23T12:56:55.444Z,19.16
2022-09-23T12:57:55.434Z,18.72
2022-09-23T12:58:55.484Z,18.76
2022-09-23T12:59:55.404Z,18.60
2022-09-23T13:00:55.499Z,18.42
2022-09-23T13:01:55.525Z,18.37
2022-09-23T13:02:55.395Z,18.42